Time;durP1;ratioP1;P1;durP2;ratioP2;P2;SDS_P1;SDS_P2;PMS_P1;PMS_P2;Temp;Humidity;BMP_temperature;BMP_pressure;BME280_temperature;BME280_humidity;BME280_pressure;Samples;Min_cycle;Max_cycle;Signal;HPM_P1;HPM_P2
2021/03/28 00:02:21;;;;;;;1999.90;999.90;;;;;;;5.57;100.00;-18058.53;5040076;28;20194;-30
2021/03/28 00:05:20;;;;;;;1999.90;999.90;;;;;;;5.45;100.00;-18055.59;5042621;28;20228;-30
2021/03/28 00:08:20;;;;;;;1999.90;999.90;;;;;;;5.61;100.00;-18059.75;5040688;28;20209;-30
2021/03/28 00:11:18;;;;;;;1999.90;999.90;;;;;;;5.58;100.00;-18058.94;5040724;28;20216;-30
2021/03/28 00:14:05;;;;;;;1999.90;999.90;;;;;;;5.58;100.00;-18058.81;5041223;28;20205;-30
2021/03/28 00:16:55;;;;;;;1999.90;999.90;;;;;;;5.73;100.00;-18062.97;5042185;28;20504;-30
2021/03/28 00:19:42;;;;;;;1999.90;999.90;;;;;;;5.75;100.00;-18063.50;5040568;28;20213;-30
2021/03/28 00:22:35;;;;;;;1999.90;999.90;;;;;;;5.61;100.00;-18059.75;5039946;28;20205;-30
2021/03/28 00:25:37;;;;;;;1999.90;999.90;;;;;;;5.87;100.00;-18066.59;5039591;28;20240;-30
2021/03/28 00:28:39;;;;;;;1999.90;999.90;;;;;;;5.90;100.00;-18067.28;5041434;28;20220;-30
2021/03/28 00:31:29;;;;;;;1999.90;999.90;;;;;;;5.66;100.00;-18061.09;5040002;28;20197;-30
2021/03/28 00:34:26;;;;;;;1999.90;999.90;;;;;;;5.68;100.00;-18061.50;5044509;28;20610;-30
2021/03/28 00:37:20;;;;;;;1999.90;999.90;;;;;;;5.83;100.00;-18065.66;5040547;28;20562;-30
2021/03/28 00:40:19;;;;;;;1999.90;999.90;;;;;;;5.86;100.00;-18066.47;5040214;28;20197;-30
2021/03/28 00:43:15;;;;;;;1999.90;999.90;;;;;;;5.94;100.00;-18068.34;5039873;28;20197;-30
2021/03/28 00:46:00;;;;;;;1999.90;999.90;;;;;;;5.67;100.00;-18061.34;5040005;28;20331;-30
2021/03/28 00:48:52;;;;;;;1999.90;999.90;;;;;;;5.79;100.00;-18064.59;5042818;28;20205;-29
2021/03/28 00:51:47;;;;;;;1999.90;999.90;;;;;;;5.82;100.00;-18065.38;5039734;28;20212;-30
2021/03/28 00:54:43;;;;;;;1999.90;999.90;;;;;;;5.79;100.00;-18064.59;5040026;28;20384;-30
2021/03/28 00:57:33;;;;;;;1999.90;999.90;;;;;;;5.78;100.00;-18064.31;5039319;28;20200;-30
2021/03/28 01:01:00;;;;;;;1999.90;999.90;;;;;;;5.99;100.00;-18069.81;5039472;28;20255;-30
2021/03/28 01:04:07;;;;;;;1999.90;999.90;;;;;;;5.71;100.00;-18062.44;5038945;28;20220;-30
2021/03/28 01:06:57;;;;;;;1999.90;999.90;;;;;;;5.94;100.00;-18068.34;5039071;28;20255;-30
2021/03/28 01:10:21;;;;;;;1999.90;999.90;;;;;;;6.03;100.00;-18070.75;5040187;28;20605;-30
2021/03/28 01:13:44;;;;;;;1999.90;999.90;;;;;;;6.16;100.00;-18074.25;4985693;28;20204;-30
2021/03/28 01:17:08;;;;;;;1999.90;999.90;;;;;;;6.32;100.00;-18078.53;5038173;28;20600;-30
2021/03/28 01:20:30;;;;;;;1999.90;999.90;;;;;;;6.06;100.00;-18071.56;5038915;28;20205;-30
2021/03/28 01:23:33;;;;;;;1999.90;999.90;;;;;;;6.05;100.00;-18071.28;5038890;28;20205;-30
2021/03/28 01:30:36;;;;;;;1999.90;999.90;;;;;;;6.04;100.00;-18071.03;5041050;28;20197;-29
2021/03/28 01:33:28;;;;;;;1999.90;999.90;;;;;;;6.11;100.00;-18072.91;5041238;28;20541;-30
2021/03/28 01:36:24;;;;;;;1999.90;999.90;;;;;;;6.02;100.00;-18070.50;5038542;28;20197;-30
2021/03/28 01:39:16;;;;;;;1999.90;999.90;;;;;;;6.02;100.00;-18070.50;5038244;28;20272;-29
2021/03/28 01:42:08;;;;;;;1999.90;999.90;;;;;;;6.01;100.00;-18070.22;5039119;28;20291;-30
2021/03/28 01:45:01;;;;;;;1999.90;999.90;;;;;;;5.98;100.00;-18069.41;5038304;28;20289;-30
2021/03/28 01:48:00;;;;;;;1999.90;999.90;;;;;;;6.00;100.00;-18069.94;5038775;28;20204;-30
2021/03/28 01:51:08;;;;;;;1999.90;999.90;;;;;;;6.04;100.00;-18071.16;5038461;28;20201;-30
2021/03/28 01:54:06;;;;;;;1999.90;999.90;;;;;;;5.80;100.00;-18064.84;5037591;28;20344;-29
2021/03/28 01:56:59;;;;;;;1999.90;999.90;;;;;;;6.04;100.00;-18071.16;5039719;28;20197;-30
2021/03/28 02:00:14;;;;;;;1999.90;999.90;;;;;;;6.02;100.00;-18070.50;5037388;28;20196;-29
2021/03/28 02:03:10;;;;;;;1999.90;999.90;;;;;;;5.98;100.00;-18069.41;5037800;28;20205;-30
2021/03/28 02:06:07;;;;;;;1999.90;999.90;;;;;;;6.11;100.00;-18072.91;5037711;28;20228;-30
2021/03/28 02:08:58;;;;;;;1999.90;999.90;;;;;;;6.13;100.00;-18073.56;5039558;28;20205;-30
2021/03/28 02:11:58;;;;;;;1999.90;999.90;;;;;;;6.06;100.00;-18071.56;5042430;28;20303;-30
2021/03/28 02:15:00;;;;;;;1999.90;999.90;;;;;;;6.23;100.00;-18076.25;5038201;28;20481;-30
2021/03/28 02:17:56;;;;;;;1999.90;999.90;;;;;;;6.03;100.00;-18070.88;5038128;28;20258;-30
2021/03/28 02:20:52;;;;;;;1999.90;999.90;;;;;;;6.06;100.00;-18071.69;5037266;28;20350;-29
2021/03/28 02:23:44;;;;;;;1999.90;999.90;;;;;;;6.03;100.00;-18070.88;5037307;28;20201;-30
2021/03/28 02:26:37;;;;;;;1999.90;999.90;;;;;;;6.13;100.00;-18073.56;5038808;28;20232;-29
2021/03/28 02:29:28;;;;;;;1999.90;999.90;;;;;;;6.29;100.00;-18077.72;5037246;28;20192;-29
2021/03/28 02:32:27;;;;;;;1999.90;999.90;;;;;;;6.23;100.00;-18076.13;5037386;28;20200;-30
2021/03/28 02:35:36;;;;;;;1999.90;999.90;;;;;;;6.15;100.00;-18073.97;5036750;28;20240;-30
2021/03/28 02:39:22;;;;;;;1999.90;999.90;;;;;;;6.35;100.00;-18079.34;5037600;28;20205;-30
2021/03/28 02:42:18;;;;;;;1999.90;999.90;;;;;;;6.24;100.00;-18076.38;4937883;29;20201;-30
2021/03/28 02:45:18;;;;;;;1999.90;999.90;;;;;;;6.26;100.00;-18076.94;4943026;29;20291;-30
2021/03/28 02:48:40;;;;;;;1999.90;999.90;;;;;;;6.23;100.00;-18076.13;5037724;28;20205;-30
2021/03/28 02:51:37;;;;;;;1999.90;999.90;;;;;;;6.18;100.00;-18074.78;5037371;28;20201;-30
2021/03/28 02:54:59;;;;;;;1999.90;999.90;;;;;;;6.42;100.00;-18081.09;5037392;28;20268;-30
2021/03/28 02:57:50;;;;;;;1999.90;999.90;;;;;;;6.32;100.00;-18078.41;5037179;28;20220;-30
2021/03/28 03:00:45;;;;;;;1999.90;999.90;;;;;;;6.27;100.00;-18077.19;5037466;28;20477;-29
2021/03/28 03:03:59;;;;;;;1999.90;999.90;;;;;;;6.29;100.00;-18077.59;5039450;28;20509;-30
2021/03/28 03:07:18;;;;;;;1999.90;999.90;;;;;;;6.33;100.00;-18078.81;5037682;28;20504;-30
2021/03/28 03:10:46;;;;;;;1999.90;999.90;;;;;;;6.34;100.00;-18079.06;5033694;28;20213;-29
2021/03/28 03:14:08;;;;;;;1999.90;999.90;;;;;;;6.51;100.00;-18083.50;5039238;28;20359;-30
2021/03/28 03:17:29;;;;;;;1999.90;999.90;;;;;;;6.44;100.00;-18081.75;5021160;28;20224;-30
2021/03/28 03:20:30;;;;;;;1999.90;999.90;;;;;;;6.66;100.00;-18087.53;5039278;28;20201;-29
2021/03/28 03:24:01;;;;;;;1999.90;999.90;;;;;;;6.74;100.00;-18089.53;5041037;28;20216;-30
2021/03/28 03:27:19;;;;;;;1999.90;999.90;;;;;;;6.70;100.00;-18088.59;5041145;28;20224;-30
2021/03/28 03:30:40;;;;;;;1999.90;999.90;;;;;;;6.56;100.00;-18084.97;5040300;28;20284;-29
2021/03/28 03:34:05;;;;;;;1999.90;999.90;;;;;;;6.55;100.00;-18084.72;5041231;28;20249;-30
2021/03/28 03:37:32;;;;;;;1999.90;999.90;;;;;;;6.72;100.00;-18089.00;5041016;28;20202;-30
2021/03/28 03:40:43;;;;;;;1999.90;999.90;;;;;;;6.73;100.00;-18089.41;5020007;28;20205;-29
2021/03/28 03:44:00;;;;;;;1999.90;999.90;;;;;;;6.84;100.00;-18092.22;5042559;28;20305;-29
2021/03/28 03:47:00;;;;;;;1999.90;999.90;;;;;;;6.87;100.00;-18093.03;5040531;28;20230;-29
2021/03/28 03:50:17;;;;;;;1999.90;999.90;;;;;;;6.85;100.00;-18092.47;5040834;28;20202;-29
2021/03/28 03:53:12;;;;;;;1999.90;999.90;;;;;;;6.91;100.00;-18094.09;5015530;28;20204;-29
2021/03/28 03:56:12;;;;;;;1999.90;999.90;;;;;;;6.91;100.00;-18094.22;5040750;28;20201;-29
2021/03/28 03:59:14;;;;;;;1999.90;999.90;;;;;;;6.83;100.00;-18092.09;5040368;28;20607;-29
2021/03/28 04:02:09;;;;;;;1999.90;999.90;;;;;;;6.64;100.00;-18086.84;5041962;28;20280;-28
2021/03/28 04:05:13;;;;;;;1999.90;999.90;;;;;;;6.75;100.00;-18089.94;5041677;28;20347;-28
2021/03/28 04:08:20;;;;;;;1999.90;999.90;;;;;;;6.73;100.00;-18089.28;5020373;28;20265;-29
2021/03/28 04:11:23;;;;;;;1999.90;999.90;;;;;;;6.84;100.00;-18092.34;5020151;28;20202;-29
2021/03/28 04:14:45;;;;;;;1999.90;999.90;;;;;;;6.72;100.00;-18089.00;5020508;28;20201;-29
2021/03/28 04:17:56;;;;;;;1999.90;999.90;;;;;;;6.80;100.00;-18091.16;5018705;28;20292;-29
2021/03/28 04:20:52;;;;;;;1999.90;999.90;;;;;;;6.71;100.00;-18088.88;5020848;28;20621;-29
2021/03/28 04:23:52;;;;;;;1999.90;999.90;;;;;;;6.79;100.00;-18091.00;5020876;28;20218;-28
2021/03/28 04:26:58;;;;;;;1999.90;999.90;;;;;;;6.73;100.00;-18089.41;5022553;28;20222;-28
2021/03/28 04:29:46;;;;;;;1999.90;999.90;;;;;;;7.04;100.00;-18097.59;5019725;28;20206;-28
2021/03/28 04:32:48;;;;;;;1999.90;999.90;;;;;;;6.86;100.00;-18092.75;5020358;28;20559;-29
2021/03/28 04:35:51;;;;;;;1999.90;999.90;;;;;;;6.87;100.00;-18093.16;4981366;28;20202;-29
2021/03/28 04:38:56;;;;;;;1999.90;999.90;;;;;;;6.84;100.00;-18092.34;4981335;28;20200;-30
2021/03/28 04:42:23;;;;;;;1999.90;999.90;;;;;;;6.79;100.00;-18090.88;4981921;28;20219;-30
2021/03/28 04:45:48;;;;;;;1999.90;999.90;;;;;;;6.97;100.00;-18095.72;4981312;28;20220;-28
2021/03/28 04:49:04;;;;;;;1999.90;999.90;;;;;;;6.93;100.00;-18094.63;4982007;28;20207;-30
2021/03/28 04:52:37;;;;;;;1999.90;999.90;;;;;;;7.06;100.00;-18097.97;4964157;28;20332;-28
2021/03/28 04:56:02;;;;;;;1999.90;999.90;;;;;;;6.93;100.00;-18094.50;4982824;28;20202;-31
2021/03/28 04:59:36;;;;;;;1999.90;999.90;;;;;;;7.10;100.00;-18099.06;4980914;28;20499;-29
2021/03/28 05:02:30;;;;;;;1999.90;999.90;;;;;;;6.86;100.00;-18092.75;4980495;28;20513;-29
2021/03/28 05:06:02;;;;;;;1999.90;999.90;;;;;;;7.03;100.00;-18097.31;4980082;28;20204;-29
2021/03/28 05:08:56;;;;;;;1999.90;999.90;;;;;;;7.06;100.00;-18097.97;4982784;28;20261;-29
2021/03/28 05:12:15;;;;;;;1999.90;999.90;;;;;;;6.98;100.00;-18095.97;4981457;28;20307;-29
2021/03/28 05:15:48;;;;;;;1999.90;999.90;;;;;;;7.13;100.00;-18099.88;4980657;28;20200;-29
2021/03/28 05:18:57;;;;;;;1999.90;999.90;;;;;;;7.30;100.00;-18104.41;4980445;28;20266;-29
2021/03/28 05:22:25;;;;;;;1999.90;999.90;;;;;;;7.08;100.00;-18098.66;4980603;28;20204;-30
2021/03/28 05:25:32;;;;;;;1999.90;999.90;;;;;;;6.78;100.00;-18090.75;4980738;28;20214;-29
2021/03/28 05:29:02;;;;;;;1999.90;999.90;;;;;;;7.26;100.00;-18103.47;4980103;28;20207;-29
2021/03/28 05:32:36;;;;;;;1999.90;999.90;;;;;;;7.12;100.00;-18099.59;4948149;28;20496;-30
2021/03/28 05:35:41;;;;;;;1999.90;999.90;;;;;;;7.16;100.00;-18100.81;5018864;28;20237;-30
2021/03/28 05:39:04;;;;;;;1999.90;999.90;;;;;;;7.12;100.00;-18099.72;5018147;28;20197;-30
2021/03/28 05:42:12;;;;;;;1999.90;999.90;;;;;;;7.22;100.00;-18102.28;5018294;28;20492;-30
2021/03/28 05:45:23;;;;;;;1999.90;999.90;;;;;;;7.23;100.00;-18102.69;5017685;28;20202;-30
2021/03/28 05:48:32;;;;;;;1999.90;999.90;;;;;;;7.21;100.00;-18102.00;5019559;28;20203;-30
2021/03/28 05:51:54;;;;;;;1999.90;999.90;;;;;;;7.04;100.00;-18097.44;5018895;28;20202;-30
2021/03/28 05:55:20;;;;;;;1999.90;999.90;;;;;;;7.34;100.00;-18105.50;4986387;28;20469;-31
2021/03/28 05:58:41;;;;;;;1999.90;999.90;;;;;;;7.58;100.00;-18111.94;5021838;28;20236;-29
2021/03/28 06:01:49;;;;;;;1999.90;999.90;;;;;;;7.59;100.00;-18112.06;5017945;28;20272;-30
2021/03/28 06:05:10;;;;;;;1999.90;999.90;;;;;;;7.57;100.00;-18111.53;5017776;28;20218;-30
2021/03/28 06:08:38;;;;;;;1999.90;999.90;;;;;;;7.92;100.00;-18120.78;5002948;28;20227;-30
2021/03/28 06:11:56;;;;;;;1999.90;999.90;;;;;;;7.68;100.00;-18114.47;5018161;28;20258;-30
2021/03/28 06:15:07;;;;;;;1999.90;999.90;;;;;;;7.92;100.00;-18120.78;5019095;28;20193;-30
2021/03/28 06:18:35;;;;;;;1999.90;999.90;;;;;;;7.88;100.00;-18119.84;5019882;28;20197;-30
2021/03/28 06:21:43;;;;;;;1999.90;999.90;;;;;;;7.82;100.00;-18118.09;5007990;28;20628;-30
2021/03/28 06:25:04;;;;;;;1999.90;999.90;;;;;;;8.43;100.00;-18134.16;5017813;28;20352;-30
2021/03/28 06:28:22;;;;;;;1999.90;999.90;;;;;;;8.22;100.00;-18128.66;5017736;28;20208;-30
2021/03/28 06:31:56;;;;;;;1999.90;999.90;;;;;;;7.98;100.00;-18122.25;5019751;28;20205;-29
2021/03/28 06:35:21;;;;;;;1999.90;999.90;;;;;;;8.01;100.00;-18123.19;5033496;28;20233;-30
2021/03/28 06:38:42;;;;;;;1999.90;999.90;;;;;;;7.98;100.00;-18122.38;5028447;28;20202;-30
2021/03/28 06:42:06;;;;;;;1999.90;999.90;;;;;;;8.06;100.00;-18124.53;5020027;28;20244;-30
2021/03/28 06:45:29;;;;;;;1999.90;999.90;;;;;;;8.11;100.00;-18125.84;5018386;28;20487;-30
2021/03/28 06:48:43;;;;;;;1999.90;999.90;;;;;;;8.32;100.00;-18131.34;5008665;28;20225;-30
2021/03/28 06:51:42;;;;;;;1999.90;999.90;;;;;;;8.68;100.00;-18140.72;5017729;28;20205;-30
2021/03/28 06:55:07;;;;;;;1999.90;999.90;;;;;;;8.39;100.00;-18133.22;5018970;28;20200;-30
2021/03/28 06:58:20;;;;;;;1999.90;999.90;;;;;;;8.62;100.00;-18139.25;5022543;28;20273;-30
2021/03/28 07:02:03;;;;;;;1999.90;999.90;;;;;;;8.71;100.00;-18141.53;5022122;28;20366;-30
2021/03/28 07:05:14;;;;;;;1999.90;999.90;;;;;;;8.62;100.00;-18139.25;5022634;28;20197;-30
2021/03/28 07:08:11;;;;;;;1999.90;999.90;;;;;;;8.81;100.00;-18144.22;5023640;28;20202;-30
2021/03/28 07:11:14;;;;;;;1999.90;999.90;;;;;;;9.02;100.00;-18149.69;5032553;28;20209;-30
2021/03/28 07:14:33;;;;;;;1999.90;999.90;;;;;;;8.90;100.00;-18146.75;5041614;28;20205;-30
2021/03/28 07:18:00;;;;;;;1999.90;999.90;;;;;;;8.76;100.00;-18143.00;5024268;28;20284;-30
2021/03/28 07:20:58;;;;;;;1999.90;999.90;;;;;;;8.79;100.00;-18143.81;5020652;28;20202;-29
2021/03/28 07:24:17;;;;;;;1999.90;999.90;;;;;;;8.79;100.00;-18143.69;5023453;28;20652;-30
2021/03/28 07:27:58;;;;;;;1999.90;999.90;;;;;;;8.97;100.00;-18148.50;5018581;28;20201;-30
2021/03/28 07:31:02;;;;;;;1999.90;999.90;;;;;;;8.42;100.00;-18134.03;5021630;28;20197;-30
2021/03/28 07:34:08;;;;;;;1999.90;999.90;;;;;;;8.75;100.00;-18142.75;5021127;28;20249;-29
2021/03/28 07:37:32;;;;;;;1999.90;999.90;;;;;;;9.19;100.00;-18154.38;5020322;28;20237;-30
2021/03/28 07:40:44;;;;;;;1999.90;999.90;;;;;;;8.71;100.00;-18141.53;5022081;28;20489;-30
2021/03/28 07:44:11;;;;;;;1999.90;999.90;;;;;;;8.87;100.00;-18145.81;5020834;28;20481;-29
2021/03/28 07:47:20;;;;;;;1999.90;999.90;;;;;;;9.11;100.00;-18152.09;5019874;28;20330;-29
2021/03/28 07:50:54;;;;;;;1999.90;999.90;;;;;;;9.03;100.00;-18150.09;5025872;28;20311;-29
2021/03/28 07:54:18;;;;;;;1999.90;999.90;;;;;;;8.98;100.00;-18148.91;5021588;28;20206;-30
2021/03/28 07:57:46;;;;;;;1999.90;999.90;;;;;;;9.09;100.00;-18151.56;5007396;28;20324;-30
2021/03/28 08:00:48;;;;;;;1999.90;999.90;;;;;;;9.20;100.00;-18154.53;5022414;28;20210;-29
2021/03/28 08:04:03;;;;;;;1999.90;999.90;;;;;;;9.00;100.00;-18149.28;5021132;28;20205;-30
2021/03/28 08:07:12;;;;;;;1999.90;999.90;;;;;;;9.17;100.00;-18153.72;5020060;28;20265;-29
2021/03/28 08:10:25;;;;;;;1999.90;999.90;;;;;;;9.40;100.00;-18159.75;5020970;28;20201;-29
2021/03/28 08:13:40;;;;;;;1999.90;999.90;;;;;;;9.28;100.00;-18156.66;5019947;28;20330;-30
2021/03/28 08:17:04;;;;;;;1999.90;999.90;;;;;;;9.44;100.00;-18160.94;5020200;28;20217;-30
2021/03/28 08:20:21;;;;;;;1999.90;999.90;;;;;;;9.63;100.00;-18165.91;5019735;28;20202;-29
2021/03/28 08:23:31;;;;;;;1999.90;999.90;;;;;;;9.56;100.00;-18164.03;5021300;28;20487;-30
2021/03/28 08:26:55;;;;;;;1999.90;999.90;;;;;;;9.67;100.00;-18166.97;5032798;28;20209;-30
2021/03/28 08:30:15;;;;;;;1999.90;999.90;;;;;;;9.93;100.00;-18173.91;5022514;28;20206;-30
2021/03/28 08:33:32;;;;;;;1999.90;999.90;;;;;;;9.90;100.00;-18172.97;5020192;28;20478;-30
2021/03/28 08:36:49;;;;;;;1999.90;999.90;;;;;;;10.40;100.00;-18186.22;5019259;28;20222;-30
2021/03/28 08:40:06;;;;;;;1999.90;999.90;;;;;;;10.28;100.00;-18183.03;5030570;28;20206;-30
2021/03/28 08:43:45;;;;;;;1999.90;999.90;;;;;;;10.63;100.00;-18192.25;5022659;28;20203;-30
2021/03/28 08:47:16;;;;;;;1999.90;999.90;;;;;;;10.80;100.00;-18196.78;5036232;28;20201;-31
2021/03/28 08:50:18;;;;;;;1999.90;999.90;;;;;;;10.95;100.00;-18200.66;5038744;28;20263;-31
2021/03/28 08:53:35;;;;;;;1999.90;999.90;;;;;;;11.47;99.95;-18214.44;5022342;28;20664;-30
2021/03/28 08:56:36;;;;;;;1999.90;999.90;;;;;;;10.77;100.00;-18195.84;5025961;28;20233;-30
2021/03/28 08:59:37;;;;;;;1999.90;999.90;;;;;;;10.80;100.00;-18196.66;5019548;28;20207;-30
2021/03/28 09:02:37;;;;;;;1999.90;999.90;;;;;;;11.12;100.00;-18205.22;5019433;28;20587;-31
2021/03/28 09:05:34;;;;;;;1999.90;999.90;;;;;;;11.45;100.00;-18213.75;5018236;28;20209;-29
2021/03/28 09:08:33;;;;;;;1999.90;999.90;;;;;;;11.20;99.06;-18207.22;5019355;28;20357;-29
2021/03/28 09:11:28;;;;;;;1999.90;999.90;;;;;;;11.37;98.39;-18211.75;5019356;28;20739;-29
2021/03/28 09:14:32;;;;;;;1999.90;999.90;;;;;;;11.82;99.92;-18223.53;5018790;28;20202;-29
2021/03/28 09:17:25;;;;;;;1999.90;999.90;;;;;;;11.71;95.83;-18220.84;5018008;28;20249;-30
2021/03/28 09:20:41;;;;;;;1999.90;999.90;;;;;;;11.94;98.11;-18226.88;5018965;28;20577;-29
2021/03/28 09:23:40;;;;;;;1999.90;999.90;;;;;;;11.48;95.40;-18214.56;5021685;28;20280;-29
2021/03/28 09:26:30;;;;;;;1999.90;999.90;;;;;;;12.21;93.40;-18233.81;5020462;28;20206;-29
2021/03/28 09:29:35;;;;;;;1999.90;999.90;;;;;;;12.14;91.00;-18231.94;5019399;28;20481;-29
2021/03/28 09:32:52;;;;;;;1999.90;999.90;;;;;;;12.53;88.50;-18242.34;5019142;28;20198;-29
2021/03/28 09:36:27;;;;;;;1999.90;999.90;;;;;;;12.69;84.53;-18246.63;5019272;28;20296;-30
2021/03/28 09:39:39;;;;;;;1999.90;999.90;;;;;;;13.88;80.94;-18277.84;5018851;28;20304;-29
2021/03/28 09:42:59;;;;;;;1999.90;999.90;;;;;;;13.97;82.26;-18280.25;5018209;28;20199;-29
2021/03/28 09:46:06;;;;;;;1999.90;999.90;;;;;;;13.94;82.65;-18279.31;5019099;28;20605;-30
2021/03/28 09:49:29;;;;;;;1999.90;999.90;;;;;;;13.89;81.31;-18277.97;5022597;28;20541;-30
2021/03/28 09:52:57;;;;;;;1999.90;999.90;;;;;;;13.80;82.10;-18275.69;5016192;28;20210;-30
2021/03/28 09:55:57;;;;;;;1999.90;999.90;;;;;;;13.81;81.88;-18275.97;5017314;28;20296;-30
2021/03/28 09:59:05;;;;;;;1999.90;999.90;;;;;;;13.67;84.16;-18272.38;5018313;28;20474;-29
2021/03/28 10:02:36;;;;;;;1999.90;999.90;;;;;;;14.07;81.93;-18282.91;5018002;28;20202;-29
2021/03/28 10:05:26;;;;;;;1999.90;999.90;;;;;;;14.49;78.86;-18293.84;4974022;28;20669;-29
2021/03/28 10:08:15;;;;;;;1999.90;999.90;;;;;;;14.30;80.91;-18288.78;5018060;28;20338;-30
2021/03/28 10:11:16;;;;;;;1999.90;999.90;;;;;;;14.75;80.45;-18300.63;5038192;28;20214;-29
2021/03/28 10:14:13;;;;;;;1999.90;999.90;;;;;;;14.19;78.11;-18285.97;5037726;28;20209;-29
2021/03/28 10:17:23;;;;;;;1999.90;999.90;;;;;;;14.68;73.95;-18298.91;5036000;28;20313;-30
2021/03/28 10:20:40;;;;;;;1999.90;999.90;;;;;;;15.03;74.92;-18307.97;5037765;28;20225;-30
2021/03/28 10:23:37;;;;;;;1999.90;999.90;;;;;;;13.82;78.67;-18276.22;5037909;28;20201;-29
2021/03/28 10:26:57;;;;;;;1999.90;999.90;;;;;;;14.61;75.00;-18296.91;5038169;28;20206;-30
2021/03/28 10:30:02;;;;;;;1999.90;999.90;;;;;;;15.22;72.06;-18313.00;5036509;28;20213;-30
2021/03/28 10:33:15;;;;;;;1999.90;999.90;;;;;;;15.46;72.83;-18319.28;5036805;28;20210;-29
2021/03/28 10:36:24;;;;;;;1999.90;999.90;;;;;;;16.05;68.90;-18334.84;5036714;28;20337;-30
2021/03/28 10:39:44;;;;;;;1999.90;999.90;;;;;;;14.82;72.55;-18302.63;5031194;28;20333;-30
2021/03/28 10:42:44;;;;;;;1999.90;999.90;;;;;;;14.84;72.92;-18303.03;5037984;28;20808;-29
2021/03/28 10:46:00;;;;;;;1999.90;999.90;;;;;;;14.21;72.08;-18286.38;5038307;28;20197;-30
2021/03/28 10:49:16;;;;;;;1999.90;999.90;;;;;;;15.45;70.25;-18319.00;5037607;28;20252;-29
2021/03/28 10:52:54;;;;;;;1999.90;999.90;;;;;;;14.68;68.87;-18298.75;5037580;28;20201;-29
2021/03/28 10:56:18;;;;;;;1999.90;999.90;;;;;;;14.55;71.04;-18295.44;5040581;28;20209;-29
2021/03/28 10:59:56;;;;;;;1999.90;999.90;;;;;;;15.11;71.10;-18310.09;5037004;28;20213;-28
2021/03/28 11:03:19;;;;;;;1999.90;999.90;;;;;;;15.09;69.11;-18309.69;5036431;28;20201;-29
2021/03/28 11:06:23;;;;;;;1999.90;999.90;;;;;;;15.30;65.82;-18315.16;5037365;28;20776;-29
2021/03/28 11:09:39;;;;;;;1999.90;999.90;;;;;;;14.54;67.44;-18295.03;5036294;28;20197;-29
2021/03/28 11:12:50;;;;;;;1999.90;999.90;;;;;;;14.78;65.51;-18301.56;5036605;28;20205;-29
2021/03/28 11:15:46;;;;;;;1999.90;999.90;;;;;;;14.67;66.12;-18298.63;5037155;28;20209;-29
2021/03/28 11:19:05;;;;;;;1999.90;999.90;;;;;;;15.45;66.59;-18319.16;5037285;28;20221;-29
2021/03/28 11:22:10;;;;;;;1999.90;999.90;;;;;;;16.22;63.48;-18339.09;5038607;28;20350;-29
2021/03/28 11:25:07;;;;;;;1999.90;999.90;;;;;;;15.84;61.47;-18329.41;5037047;28;20202;-29
2021/03/28 11:28:29;;;;;;;1999.90;999.90;;;;;;;15.88;62.39;-18330.19;5035826;28;20199;-29
2021/03/28 11:31:32;;;;;;;1999.90;999.90;;;;;;;14.96;61.13;-18306.22;5034355;28;20341;-29
2021/03/28 11:34:25;;;;;;;1999.90;999.90;;;;;;;14.82;60.66;-18302.63;5036353;28;20241;-29
2021/03/28 11:37:42;;;;;;;1999.90;999.90;;;;;;;15.46;59.10;-18319.28;5035152;28;20344;-29
2021/03/28 11:40:35;;;;;;;1999.90;999.90;;;;;;;15.78;55.31;-18327.81;5037313;28;20606;-29
2021/03/28 11:43:36;;;;;;;1999.90;999.90;;;;;;;15.56;52.56;-18321.94;5040975;28;20202;-29
2021/03/28 11:46:31;;;;;;;1999.90;999.90;;;;;;;15.05;54.41;-18308.50;5041822;28;20213;-29
2021/03/28 11:49:24;;;;;;;1999.90;999.90;;;;;;;14.99;54.39;-18306.88;5039858;28;20652;-30
2021/03/28 11:52:17;;;;;;;1999.90;999.90;;;;;;;14.99;56.24;-18306.88;5039332;28;20356;-29
2021/03/28 11:55:12;;;;;;;1999.90;999.90;;;;;;;15.06;56.54;-18308.75;5020879;28;20296;-29
2021/03/28 11:58:22;;;;;;;1999.90;999.90;;;;;;;14.73;56.13;-18300.22;5020621;28;20234;-30
2021/03/28 12:01:11;;;;;;;1999.90;999.90;;;;;;;14.69;56.48;-18299.16;5020686;28;20206;-29
2021/03/28 12:04:23;;;;;;;1999.90;999.90;;;;;;;15.22;57.19;-18313.00;5021144;28;20202;-29
2021/03/28 12:07:23;;;;;;;1999.90;999.90;;;;;;;14.48;59.11;-18293.56;5022151;28;20405;-29
2021/03/28 12:10:31;;;;;;;1999.90;999.90;;;;;;;15.26;59.73;-18314.09;5020433;28;20201;-29
2021/03/28 12:13:45;;;;;;;1999.90;999.90;;;;;;;15.18;60.63;-18311.81;5020436;28;20202;-30
2021/03/28 12:17:02;;;;;;;1999.90;999.90;;;;;;;15.05;59.45;-18308.63;5021293;28;20269;-29
2021/03/28 12:19:54;;;;;;;1999.90;999.90;;;;;;;14.98;56.93;-18306.63;5015053;28;20210;-30
2021/03/28 12:23:17;;;;;;;1999.90;999.90;;;;;;;14.88;58.56;-18303.97;5020342;28;20202;-30
2021/03/28 12:26:09;;;;;;;1999.90;999.90;;;;;;;15.16;59.28;-18311.41;5020362;28;20207;-30
2021/03/28 12:29:02;;;;;;;1999.90;999.90;;;;;;;14.41;60.72;-18291.69;5020740;28;20658;-30
2021/03/28 12:31:52;;;;;;;1999.90;999.90;;;;;;;14.69;63.26;-18299.16;5019914;28;20202;-30
2021/03/28 12:34:49;;;;;;;1999.90;999.90;;;;;;;15.04;62.11;-18308.34;5020208;28;20238;-30
2021/03/28 12:37:36;;;;;;;1999.90;999.90;;;;;;;14.74;60.70;-18300.38;5020813;28;20397;-30
2021/03/28 12:40:30;;;;;;;1999.90;999.90;;;;;;;14.45;60.84;-18292.78;5020840;28;20206;-30
2021/03/28 12:43:34;;;;;;;1999.90;999.90;;;;;;;14.58;60.08;-18296.25;5021294;28;20478;-30
2021/03/28 12:46:50;;;;;;;1999.90;999.90;;;;;;;15.07;59.79;-18309.03;5019772;28;20202;-44
2021/03/28 12:49:47;;;;;;;1999.90;999.90;;;;;;;15.06;59.42;-18308.88;5006992;28;20210;-30
2021/03/28 12:52:42;;;;;;;1999.90;999.90;;;;;;;15.38;59.49;-18317.28;5039154;28;20213;-30
2021/03/28 12:55:38;;;;;;;1999.90;999.90;;;;;;;15.12;60.39;-18310.50;5039577;28;20731;-30
2021/03/28 12:58:42;;;;;;;1999.90;999.90;;;;;;;14.90;60.89;-18304.63;5038318;28;20275;-30
2021/03/28 13:01:38;;;;;;;1999.90;999.90;;;;;;;14.68;61.66;-18298.75;5036140;28;20291;-30
2021/03/28 13:04:25;;;;;;;1999.90;999.90;;;;;;;14.76;61.70;-18300.91;5019780;28;20261;-30
2021/03/28 13:07:33;;;;;;;1999.90;999.90;;;;;;;14.89;62.65;-18304.22;5020075;28;20198;-29
2021/03/28 13:10:26;;;;;;;1999.90;999.90;;;;;;;15.22;61.41;-18312.88;5021192;28;20206;-30
2021/03/28 13:13:22;;;;;;;1999.90;999.90;;;;;;;15.27;60.18;-18314.34;5019511;28;20718;-30
2021/03/28 13:16:24;;;;;;;1999.90;999.90;;;;;;;15.66;59.63;-18324.47;5020656;28;20198;-30
2021/03/28 13:19:28;;;;;;;1999.90;999.90;;;;;;;14.97;61.06;-18306.50;5037834;28;20469;-30
2021/03/28 13:22:34;;;;;;;1999.90;999.90;;;;;;;15.65;61.01;-18324.22;5039058;28;20221;-28
2021/03/28 13:25:28;;;;;;;1999.90;999.90;;;;;;;14.79;62.75;-18301.81;5038576;28;20252;-30
2021/03/28 13:28:29;;;;;;;1999.90;999.90;;;;;;;14.94;62.30;-18305.56;5037792;28;20206;-30
2021/03/28 13:31:38;;;;;;;1999.90;999.90;;;;;;;14.80;63.14;-18301.97;5038881;28;20205;-30
2021/03/28 13:34:32;;;;;;;1999.90;999.90;;;;;;;14.62;65.16;-18297.31;5020360;28;20234;-30
2021/03/28 13:37:51;;;;;;;1999.90;999.90;;;;;;;14.60;65.21;-18296.75;5019060;28;20253;-30
2021/03/28 13:40:48;;;;;;;1999.90;999.90;;;;;;;14.67;65.70;-18298.63;5017888;28;20692;-30
2021/03/28 13:43:38;;;;;;;1999.90;999.90;;;;;;;14.42;65.24;-18291.97;5018894;28;20201;-30
2021/03/28 13:46:24;;;;;;;1999.90;999.90;;;;;;;14.36;65.08;-18290.50;5020024;28;20202;-30
2021/03/28 13:49:25;;;;;;;1999.90;999.90;;;;;;;14.62;63.34;-18297.31;5020205;28;20252;-30
2021/03/28 13:52:16;;;;;;;1999.90;999.90;;;;;;;14.26;64.14;-18287.84;5020205;28;20200;-29